Time;durP1;ratioP1;P1;durP2;ratioP2;P2;SDS_P1;SDS_P2;PMS_P1;PMS_P2;Temp;Humidity;BMP_temperature;BMP_pressure;BME280_temperature;BME280_humidity;BME280_pressure;Samples;Min_cycle;Max_cycle;Signal;HPM_P1;HPM_P2
2021/06/25 00:02:14;;;;;;;5.28;1.88;;;;;;;11.90;85.30;101892.38;4965176;28;20030;-84
2021/06/25 00:04:40;;;;;;;3.45;1.60;;;;;;;11.90;85.25;101895.06;4970264;28;20125;-85
2021/06/25 00:07:05;;;;;;;3.30;1.90;;;;;;;11.86;85.42;101894.53;4969390;28;20034;-85
2021/06/25 00:09:31;;;;;;;6.15;2.22;;;;;;;11.94;84.77;101899.97;4968303;28;20034;-84
2021/06/25 00:11:56;;;;;;;4.18;1.77;;;;;;;11.84;83.68;101894.66;4947366;28;20042;-84
2021/06/25 00:14:23;;;;;;;3.10;1.48;;;;;;;11.83;82.96;101895.66;4954347;28;20026;-84
2021/06/25 00:16:52;;;;;;;5.97;1.52;;;;;;;11.74;82.87;101899.28;4962844;28;20045;-85
2021/06/25 00:19:18;;;;;;;4.22;1.90;;;;;;;11.65;83.18;101894.84;4972202;28;20108;-85
2021/06/25 00:21:43;;;;;;;3.38;1.80;;;;;;;11.54;83.39;101887.00;4985350;28;20033;-85
2021/06/25 00:24:09;;;;;;;5.53;1.65;;;;;;;11.32;83.58;101851.44;4967388;28;20026;-84
2021/06/25 00:26:35;;;;;;;3.92;1.48;;;;;;;11.42;83.53;101879.13;4968662;28;20033;-84
2021/06/25 00:29:00;;;;;;;4.82;1.80;;;;;;;11.32;84.40;101861.34;4956014;28;20056;-84
2021/06/25 00:31:26;;;;;;;4.97;1.77;;;;;;;11.43;84.35;101874.56;4956893;28;20525;-85
2021/06/25 00:33:51;;;;;;;7.10;1.70;;;;;;;11.34;84.59;101849.44;4969444;28;20054;-84
2021/06/25 00:36:16;;;;;;;7.22;1.73;;;;;;;11.50;84.68;101880.22;4943594;28;20037;-85
2021/06/25 00:38:42;;;;;;;5.18;1.58;;;;;;;11.51;84.48;101884.59;4953411;28;20030;-85
2021/06/25 00:41:07;;;;;;;8.32;1.83;;;;;;;11.33;83.75;101866.59;4950833;28;20031;-84
2021/06/25 00:43:33;;;;;;;5.22;1.85;;;;;;;11.32;83.63;101867.56;4967550;28;20240;-85
2021/06/25 00:45:58;;;;;;;6.05;1.92;;;;;;;11.32;83.22;101874.81;4965570;28;20022;-84
2021/06/25 00:48:24;;;;;;;5.10;2.00;;;;;;;11.19;82.33;101851.84;4964990;28;20030;-85
2021/06/25 00:50:49;;;;;;;6.05;1.92;;;;;;;11.06;82.51;101824.44;4967410;28;20467;-85
2021/06/25 00:53:15;;;;;;;5.47;1.75;;;;;;;11.19;82.56;101861.72;4987929;28;20022;-85
2021/06/25 00:55:43;;;;;;;4.68;2.10;;;;;;;11.35;82.12;101882.59;4966919;28;20760;-85
2021/06/25 00:58:13;;;;;;;4.70;1.70;;;;;;;11.35;82.02;101872.69;4968357;28;20018;-84
2021/06/25 01:00:39;;;;;;;5.85;2.28;;;;;;;11.23;81.85;101876.59;4968486;28;20057;-84
2021/06/25 01:03:05;;;;;;;7.45;1.90;;;;;;;11.23;82.52;101879.28;4956181;28;20463;-84
2021/06/25 01:05:31;;;;;;;6.75;2.20;;;;;;;11.18;82.56;101876.19;4958782;28;20487;-84
2021/06/25 01:07:56;;;;;;;7.53;1.90;;;;;;;11.15;81.66;101868.44;4953399;28;20022;-85
2021/06/25 01:10:22;;;;;;;5.30;1.92;;;;;;;11.20;81.64;101887.66;4964225;28;20386;-84
2021/06/25 01:12:48;;;;;;;4.35;1.70;;;;;;;11.14;81.99;101885.56;4966538;28;20038;-85
2021/06/25 01:15:14;;;;;;;4.13;1.75;;;;;;;10.89;81.52;101853.00;4982120;28;20510;-85
2021/06/25 01:17:42;;;;;;;6.55;2.10;;;;;;;10.94;81.96;101866.03;4953568;28;20030;-85
2021/06/25 01:20:10;;;;;;;7.95;1.98;;;;;;;10.92;82.62;101874.22;4986537;28;20026;-84
2021/06/25 01:22:38;;;;;;;5.35;2.03;;;;;;;10.79;83.19;101876.44;4964443;28;20049;-85
2021/06/25 01:25:15;;;;;;;6.63;2.45;;;;;;;10.69;83.31;101865.75;4952728;28;20022;-84
2021/06/25 01:27:42;;;;;;;5.90;2.03;;;;;;;10.54;83.88;101851.94;4979753;28;20042;-84
2021/06/25 01:30:11;;;;;;;6.57;1.92;;;;;;;10.52;83.72;101851.22;4955951;28;20022;-84
2021/06/25 01:32:37;;;;;;;6.65;2.10;;;;;;;10.38;84.29;101846.34;4967667;28;20514;-84
2021/06/25 01:35:03;;;;;;;7.10;2.45;;;;;;;10.23;84.45;101821.75;4954018;28;20072;-86
2021/06/25 01:37:30;;;;;;;5.55;2.10;;;;;;;10.46;84.84;101862.59;4966913;28;20030;-85
2021/06/25 01:39:55;;;;;;;7.65;2.35;;;;;;;10.45;84.69;101860.91;4969998;28;21471;-84
2021/06/25 01:42:21;;;;;;;8.65;2.50;;;;;;;10.45;84.84;101846.59;4979506;28;20037;-85
2021/06/25 01:44:46;;;;;;;7.55;2.67;;;;;;;10.52;84.38;101863.81;4957236;28;20084;-86
2021/06/25 01:47:13;;;;;;;8.48;2.28;;;;;;;10.44;84.63;101842.22;4981900;28;20037;-84
2021/06/25 01:49:39;;;;;;;6.75;2.47;;;;;;;10.52;84.41;101856.59;4951449;28;20045;-84
2021/06/25 01:52:05;;;;;;;7.88;2.03;;;;;;;10.44;84.65;101848.44;4972414;28;20022;-85
2021/06/25 01:54:30;;;;;;;5.68;1.90;;;;;;;10.55;84.91;101872.44;4949719;28;20796;-85
2021/06/25 01:56:56;;;;;;;7.63;2.35;;;;;;;10.41;85.01;101847.91;4969822;28;20034;-85
2021/06/25 01:59:22;;;;;;;7.30;2.80;;;;;;;10.40;85.29;101854.25;4959768;28;20037;-83
2021/06/25 02:01:47;;;;;;;5.10;2.65;;;;;;;10.43;85.61;101862.88;4952569;28;20152;-85
2021/06/25 02:04:13;;;;;;;7.32;2.30;;;;;;;10.32;85.30;101852.31;4973322;28;20499;-84
2021/06/25 02:06:38;;;;;;;7.90;2.70;;;;;;;10.29;85.50;101855.28;4979838;28;20086;-85
2021/06/25 02:09:04;;;;;;;15.85;2.95;;;;;;;10.24;85.39;101849.47;4964746;28;20110;-84
2021/06/25 02:11:30;;;;;;;7.97;2.45;;;;;;;10.28;85.54;101858.97;4964897;28;20360;-83
2021/06/25 02:13:55;;;;;;;6.68;2.72;;;;;;;10.25;85.55;101861.94;4969779;28;20384;-84
2021/06/25 02:16:21;;;;;;;5.03;2.55;;;;;;;10.10;85.71;101848.94;4970729;28;20022;-84
2021/06/25 02:18:46;;;;;;;8.43;2.40;;;;;;;10.05;86.19;101851.22;4957357;28;20117;-86
2021/06/25 02:21:12;;;;;;;7.43;2.70;;;;;;;10.14;86.23;101868.31;4967804;28;20049;-84
2021/06/25 02:23:37;;;;;;;8.48;2.60;;;;;;;9.82;86.37;101825.72;4984568;28;20125;-84
2021/06/25 02:26:03;;;;;;;7.35;2.67;;;;;;;10.06;86.34;101871.75;4961375;28;20034;-85
2021/06/25 02:28:29;;;;;;;10.30;2.85;;;;;;;10.06;86.75;101874.44;4955003;28;20030;-84
2021/06/25 02:30:56;;;;;;;9.82;2.40;;;;;;;9.99;86.88;101869.78;4957106;28;20031;-84
2021/06/25 02:33:22;;;;;;;6.97;2.50;;;;;;;9.80;86.70;101828.53;4966378;28;20026;-83
2021/06/25 02:35:48;;;;;;;8.50;2.70;;;;;;;10.02;86.91;101864.09;4952718;28;20038;-84
2021/06/25 02:38:14;;;;;;;6.05;3.10;;;;;;;10.09;86.75;101874.13;4969541;28;20019;-86
2021/06/25 02:40:39;;;;;;;11.45;3.35;;;;;;;10.08;86.66;101866.19;4967779;28;20148;-84
2021/06/25 02:43:05;;;;;;;7.63;2.50;;;;;;;9.91;86.60;101836.41;4970669;28;20023;-84
2021/06/25 02:45:30;;;;;;;7.00;2.63;;;;;;;10.02;86.15;101864.09;4952944;28;20310;-83
2021/06/25 02:47:56;;;;;;;8.20;2.53;;;;;;;10.04;86.19;101876.41;4981074;28;20117;-84
2021/06/25 02:50:21;;;;;;;8.73;2.78;;;;;;;10.02;85.65;101867.63;4983009;28;20058;-85
2021/06/25 02:52:47;;;;;;;7.35;2.38;;;;;;;10.00;85.49;101863.41;4967926;28;20585;-83
2021/06/25 02:55:13;;;;;;;7.88;2.60;;;;;;;9.99;85.36;101867.94;4966641;28;20030;-85
2021/06/25 02:57:39;;;;;;;5.47;1.98;;;;;;;9.74;85.49;101831.81;4985536;28;20109;-85
2021/06/25 03:00:11;;;;;;;7.25;2.63;;;;;;;9.74;85.36;101838.97;4951177;28;20117;-84
2021/06/25 03:02:36;;;;;;;5.95;2.50;;;;;;;9.86;85.45;101851.28;4960113;28;20027;-84
2021/06/25 03:05:03;;;;;;;5.30;2.20;;;;;;;9.77;85.40;101836.03;4966168;28;20080;-83
2021/06/25 03:07:29;;;;;;;5.53;1.90;;;;;;;9.69;85.35;101826.00;4964643;28;20030;-84
2021/06/25 03:09:54;;;;;;;5.05;2.47;;;;;;;9.72;85.42;101838.31;4945568;28;20034;-84
2021/06/25 03:12:20;;;;;;;7.55;2.40;;;;;;;9.74;85.61;101836.28;4968220;28;20104;-84
2021/06/25 03:14:45;;;;;;;5.55;2.17;;;;;;;9.93;85.24;101870.38;4947964;28;20039;-85
2021/06/25 03:17:11;;;;;;;5.78;1.95;;;;;;;9.91;85.36;101865.97;4950337;28;20906;-84
2021/06/25 03:19:36;;;;;;;10.73;2.50;;;;;;;9.81;85.67;101849.00;4969083;28;20649;-85
2021/06/25 03:22:03;;;;;;;8.10;2.42;;;;;;;9.87;85.79;101856.50;4953651;28;20114;-84
2021/06/25 03:24:28;;;;;;;4.28;2.13;;;;;;;9.86;85.85;101862.00;4969047;28;20027;-84
2021/06/25 03:26:54;;;;;;;6.63;2.20;;;;;;;9.82;86.20;101844.50;4966116;28;20030;-84
2021/06/25 03:29:19;;;;;;;10.98;2.35;;;;;;;9.81;86.60;101848.16;4948272;28;20026;-84
2021/06/25 03:31:45;;;;;;;6.68;2.03;;;;;;;9.85;86.68;101866.53;4952877;28;20033;-85
2021/06/25 03:34:10;;;;;;;6.88;2.33;;;;;;;9.87;86.89;101866.38;4969099;28;20030;-85
2021/06/25 03:36:36;;;;;;;8.02;2.72;;;;;;;9.89;86.98;101861.72;4954272;28;20821;-84
2021/06/25 03:39:01;;;;;;;4.68;2.30;;;;;;;9.93;86.78;101863.16;4965335;28;20126;-85
2021/06/25 03:41:27;;;;;;;5.65;2.00;;;;;;;9.90;86.96;101858.91;4970679;28;20026;-85
2021/06/25 03:43:52;;;;;;;9.93;2.38;;;;;;;9.84;86.88;101838.00;4955136;28;20034;-85
2021/06/25 03:46:20;;;;;;;5.40;2.17;;;;;;;9.93;86.88;101852.41;4969078;28;20715;-85
2021/06/25 03:48:45;;;;;;;8.10;2.70;;;;;;;9.99;87.08;101867.94;4952791;28;20034;-85
2021/06/25 03:51:11;;;;;;;6.93;2.10;;;;;;;9.73;87.24;101818.50;4962518;28;20050;-84
2021/06/25 03:53:36;;;;;;;8.00;2.40;;;;;;;9.79;87.42;101825.97;4981012;28;20030;-85
2021/06/25 03:56:11;;;;;;;9.20;2.35;;;;;;;9.85;87.17;101838.84;4955814;28;20026;-85
2021/06/25 03:58:45;;;;;;;8.75;2.65;;;;;;;9.93;87.36;101848.88;4953653;28;20030;-84
2021/06/25 04:01:11;;;;;;;3.28;1.77;;;;;;;9.96;87.08;101851.25;4941313;28;20035;-85
2021/06/25 04:03:37;;;;;;;5.47;1.95;;;;;;;10.02;87.39;101856.03;4954448;28;20978;-85
2021/06/25 04:06:04;;;;;;;6.57;2.03;;;;;;;9.94;87.45;101848.72;4965257;28;20023;-84
2021/06/25 04:08:31;;;;;;;6.03;2.10;;;;;;;9.82;87.44;101829.22;4974012;28;20072;-84
2021/06/25 04:10:57;;;;;;;8.57;2.42;;;;;;;9.94;87.42;101847.88;4968316;28;20029;-84
2021/06/25 04:13:24;;;;;;;8.20;2.47;;;;;;;10.00;87.88;101852.66;4956890;28;20042;-85
2021/06/25 04:15:49;;;;;;;6.85;2.50;;;;;;;9.96;87.54;101843.19;4968214;28;20640;-85
2021/06/25 04:18:15;;;;;;;5.15;1.92;;;;;;;10.00;87.51;101849.97;4968488;28;20039;-85
2021/06/25 04:20:42;;;;;;;5.43;2.08;;;;;;;9.93;87.21;101844.34;4969552;28;20113;-85
2021/06/25 04:23:07;;;;;;;5.85;2.40;;;;;;;10.07;87.39;101862.66;4968793;28;20034;-85
2021/06/25 04:25:33;;;;;;;10.82;2.55;;;;;;;10.08;86.99;101868.88;4963895;28;20031;-85
2021/06/25 04:27:59;;;;;;;8.23;1.80;;;;;;;10.02;86.96;101854.19;4967779;28;20026;-85
2021/06/25 04:30:24;;;;;;;7.65;2.17;;;;;;;9.98;87.34;101849.28;4966924;28;20394;-85
2021/06/25 04:32:50;;;;;;;7.70;1.88;;;;;;;9.99;87.09;101843.75;4970721;28;20033;-84
2021/06/25 04:35:15;;;;;;;8.25;2.42;;;;;;;10.07;87.04;101860.00;4970911;28;20074;-85
2021/06/25 04:37:41;;;;;;;4.75;1.95;;;;;;;9.90;86.95;101836.56;4989408;28;20026;-85
2021/06/25 04:40:07;;;;;;;6.28;1.70;;;;;;;10.14;86.87;101876.38;4971434;28;20049;-85
2021/06/25 04:42:33;;;;;;;4.55;2.30;;;;;;;10.12;86.84;101883.75;4971458;28;20106;-85
2021/06/25 04:44:58;;;;;;;3.33;1.85;;;;;;;10.12;86.68;101876.53;4971721;28;20030;-85
2021/06/25 04:47:25;;;;;;;7.47;1.92;;;;;;;10.13;86.69;101870.19;4957223;28;21646;-84
2021/06/25 04:49:50;;;;;;;6.22;1.92;;;;;;;10.17;86.47;101865.34;4969614;28;20034;-85
2021/06/25 04:52:16;;;;;;;6.30;2.30;;;;;;;10.16;86.55;101865.47;4973984;28;20030;-85
2021/06/25 04:54:41;;;;;;;5.50;2.17;;;;;;;10.13;86.69;101867.50;4956349;28;20089;-85
2021/06/25 04:57:07;;;;;;;10.95;2.38;;;;;;;10.16;86.74;101869.03;4984676;28;20072;-84
2021/06/25 04:59:32;;;;;;;2.45;1.77;;;;;;;9.95;86.58;101833.44;4969883;28;20030;-85
2021/06/25 05:01:58;;;;;;;5.82;1.73;;;;;;;10.08;86.48;101861.69;4970863;28;21002;-85
2021/06/25 05:04:23;;;;;;;7.30;1.95;;;;;;;10.10;86.49;101866.91;4984316;28;20061;-85
2021/06/25 05:06:49;;;;;;;7.35;4.05;;;;;;;10.15;87.09;101872.69;4965614;28;20061;-85
2021/06/25 05:09:15;;;;;;;6.78;2.00;;;;;;;10.18;86.55;101879.63;4985456;28;20042;-85
2021/06/25 05:11:41;;;;;;;5.05;1.77;;;;;;;10.14;86.53;101873.69;4971996;28;20081;-85
2021/06/25 05:14:07;;;;;;;6.78;1.95;;;;;;;10.07;86.42;101872.59;4992959;28;20073;-84
2021/06/25 05:16:32;;;;;;;5.03;1.80;;;;;;;10.12;86.20;101878.38;4959393;28;20088;-84
2021/06/25 05:18:58;;;;;;;5.47;1.92;;;;;;;10.07;86.36;101870.72;4955498;28;20026;-84
2021/06/25 05:21:23;;;;;;;7.25;2.58;;;;;;;10.16;86.28;101877.09;4958544;28;20402;-85
2021/06/25 05:23:50;;;;;;;6.45;1.90;;;;;;;10.22;86.24;101884.56;4953687;28;20034;-85
2021/06/25 05:26:15;;;;;;;5.75;1.80;;;;;;;9.94;86.18;101837.97;4968605;28;20040;-84
2021/06/25 05:28:41;;;;;;;6.05;2.60;;;;;;;9.90;85.64;101831.19;4985251;28;20035;-84
2021/06/25 05:31:06;;;;;;;6.53;2.10;;;;;;;10.14;85.99;101871.00;4974406;28;20055;-85
2021/06/25 05:33:32;;;;;;;5.43;1.58;;;;;;;10.24;86.00;101884.41;4969518;28;20026;-85
2021/06/25 05:35:57;;;;;;;5.28;2.35;;;;;;;10.27;85.85;101887.69;4958917;28;20057;-85
2021/06/25 05:38:23;;;;;;;4.90;1.70;;;;;;;9.99;85.36;101846.44;4988947;28;20112;-85
2021/06/25 05:40:48;;;;;;;6.05;1.95;;;;;;;10.20;85.38;101865.03;4985492;28;20034;-85
2021/06/25 05:43:14;;;;;;;5.80;1.92;;;;;;;10.26;85.45;101887.81;4988369;28;20074;-84
2021/06/25 05:45:40;;;;;;;5.18;1.83;;;;;;;10.18;85.32;101868.88;4967651;28;20110;-85
2021/06/25 05:48:06;;;;;;;4.88;1.85;;;;;;;10.31;84.85;101883.72;4954295;28;20065;-85
2021/06/25 05:50:32;;;;;;;9.80;2.08;;;;;;;10.35;85.12;101881.59;4982685;28;20030;-84
2021/06/25 05:52:58;;;;;;;5.47;2.13;;;;;;;10.41;85.21;101891.75;4967973;28;20022;-85
2021/06/25 05:55:23;;;;;;;6.10;1.90;;;;;;;10.33;85.14;101870.13;4964367;28;20026;-85
2021/06/25 05:57:51;;;;;;;6.22;1.75;;;;;;;10.42;85.06;101876.47;4968245;28;20121;-85
2021/06/25 06:00:17;;;;;;;4.15;1.70;;;;;;;10.46;84.99;101870.66;4968791;28;20400;-85
2021/06/25 06:02:44;;;;;;;3.20;1.65;;;;;;;10.52;84.93;101885.34;4953358;28;20034;-85
2021/06/25 06:05:10;;;;;;;6.63;2.15;;;;;;;10.52;84.91;101879.97;4966105;28;20050;-85
2021/06/25 06:07:36;;;;;;;4.72;1.67;;;;;;;10.54;84.72;101883.34;4980855;28;20036;-84
2021/06/25 06:10:03;;;;;;;8.57;2.08;;;;;;;10.44;84.69;101867.25;4974202;28;20457;-85
2021/06/25 06:12:28;;;;;;;5.18;1.60;;;;;;;10.55;84.50;101880.50;4954869;28;20029;-85
2021/06/25 06:14:54;;;;;;;5.15;2.00;;;;;;;10.47;84.67;101876.88;4969337;28;20387;-84
2021/06/25 06:17:21;;;;;;;6.82;1.90;;;;;;;10.46;84.37;101873.34;4969797;28;20042;-84
2021/06/25 06:19:52;;;;;;;6.22;2.03;;;;;;;10.48;83.78;101879.41;4978891;28;20141;-85
2021/06/25 06:33:20;;;;;;;7.97;3.13;;;;;;;10.63;83.39;101881.63;4982578;28;20070;-83
2021/06/25 06:35:46;;;;;;;5.47;2.08;;;;;;;10.62;83.33;101878.09;4965653;28;20078;-84
2021/06/25 06:38:12;;;;;;;5.53;2.00;;;;;;;10.59;83.46;101869.47;4964037;28;20026;-84
2021/06/25 06:40:37;;;;;;;7.63;1.98;;;;;;;10.54;83.21;101851.09;4966362;28;20030;-85
2021/06/25 06:43:03;;;;;;;7.07;1.58;;;;;;;10.76;83.34;101887.50;4971059;28;20109;-85
2021/06/25 06:45:28;;;;;;;9.40;2.20;;;;;;;10.55;83.23;101853.59;4954902;28;20023;-84
2021/06/25 06:47:54;;;;;;;4.78;1.92;;;;;;;10.72;82.89;101884.25;4953689;28;20044;-84
2021/06/25 06:50:20;;;;;;;7.97;1.98;;;;;;;10.72;82.90;101886.13;4983520;28;20026;-85
2021/06/25 06:52:50;;;;;;;6.75;2.15;;;;;;;10.71;82.93;101882.56;4967601;28;20034;-85
2021/06/25 06:55:17;;;;;;;6.40;1.80;;;;;;;10.68;82.33;101882.84;4952742;28;20026;-85
2021/06/25 06:57:44;;;;;;;6.18;2.15;;;;;;;10.63;82.52;101866.31;4969850;28;20033;-83
2021/06/25 07:00:10;;;;;;;6.47;1.80;;;;;;;10.72;82.56;101886.97;4954464;28;20035;-83
2021/06/25 07:02:40;;;;;;;4.72;1.65;;;;;;;10.75;81.98;101891.19;4945150;28;20400;-85
2021/06/25 07:05:06;;;;;;;8.20;1.88;;;;;;;10.73;81.76;101887.78;4977732;28;20491;-83
2021/06/25 07:07:32;;;;;;;4.32;1.60;;;;;;;10.83;81.82;101895.84;4956623;28;20022;-85
2021/06/25 07:09:58;;;;;;;6.03;1.75;;;;;;;10.74;81.61;101881.41;4981492;28;20076;-85
2021/06/25 07:12:24;;;;;;;5.57;2.40;;;;;;;10.77;81.23;101870.38;4962678;28;20104;-84
2021/06/25 07:14:49;;;;;;;5.43;1.83;;;;;;;10.82;80.83;101876.13;4966365;28;20422;-85
2021/06/25 07:17:15;;;;;;;4.88;1.80;;;;;;;10.99;80.37;101890.63;4954042;28;20037;-84
2021/06/25 07:19:40;;;;;;;8.30;1.77;;;;;;;11.02;80.08;101873.34;4963472;28;20042;-83
2021/06/25 07:22:05;;;;;;;6.82;1.70;;;;;;;11.20;79.75;101893.06;4970794;28;20014;-84
2021/06/25 07:24:31;;;;;;;5.43;1.90;;;;;;;11.23;79.87;101888.19;4973167;28;20026;-83
2021/06/25 07:26:57;;;;;;;7.25;2.03;;;;;;;11.30;79.05;101906.44;4956810;28;20034;-84
2021/06/25 07:29:23;;;;;;;6.78;2.03;;;;;;;11.33;78.96;101903.44;4964051;28;20048;-85
2021/06/25 07:31:49;;;;;;;7.43;1.95;;;;;;;11.30;78.77;101896.53;4969419;28;20027;-84
2021/06/25 07:34:15;;;;;;;7.63;1.80;;;;;;;11.30;78.34;101901.03;4962332;28;20101;-83
2021/06/25 07:36:40;;;;;;;4.30;1.70;;;;;;;11.31;78.22;101889.28;4991222;28;20072;-83
2021/06/25 07:39:09;;;;;;;7.47;2.22;;;;;;;11.28;78.43;101870.75;4957130;28;20030;-85
2021/06/25 07:41:35;;;;;;;6.53;2.13;;;;;;;11.44;78.43;101887.91;4988307;28;20042;-85
2021/06/25 07:44:01;;;;;;;4.38;1.88;;;;;;;11.49;77.46;101878.53;4960952;28;20037;-84
2021/06/25 07:46:26;;;;;;;5.78;2.20;;;;;;;11.63;77.17;101886.06;4989213;28;20023;-85
2021/06/25 07:48:52;;;;;;;14.10;2.72;;;;;;;11.58;77.00;101882.97;4970303;28;20026;-86
2021/06/25 07:51:17;;;;;;;6.68;2.20;;;;;;;11.80;76.82;101884.31;4972062;28;20086;-84
2021/06/25 07:53:43;;;;;;;8.13;2.00;;;;;;;11.74;76.14;101877.72;4950826;28;20592;-84
2021/06/25 07:56:09;;;;;;;7.97;2.35;;;;;;;11.80;76.06;101890.59;4965656;28;20045;-85
2021/06/25 07:58:34;;;;;;;5.18;2.03;;;;;;;11.83;75.68;101887.56;4957528;28;20116;-83
2021/06/25 08:00:59;;;;;;;3.17;1.60;;;;;;;11.95;75.78;101890.03;4964401;28;20049;-85
2021/06/25 08:03:25;;;;;;;5.45;2.17;;;;;;;12.03;75.50;101898.19;4964000;28;20060;-83
2021/06/25 08:05:53;;;;;;;9.07;2.10;;;;;;;12.03;75.19;101887.41;4956332;28;20462;-83
2021/06/25 08:08:19;;;;;;;4.65;2.03;;;;;;;11.96;75.10;101881.81;4979073;28;20098;-85
2021/06/25 08:10:44;;;;;;;7.43;2.40;;;;;;;12.09;75.77;101892.16;4959049;28;20062;-84
2021/06/25 08:13:10;;;;;;;5.32;1.77;;;;;;;11.99;74.36;101875.25;4974328;28;20030;-85
2021/06/25 08:15:36;;;;;;;5.18;2.70;;;;;;;11.98;74.76;101862.78;4984796;28;20026;-84
2021/06/25 08:18:01;;;;;;;9.35;2.35;;;;;;;12.28;74.81;101894.66;4992947;28;20030;-84
2021/06/25 08:20:27;;;;;;;7.95;2.55;;;;;;;12.39;74.77;101893.53;4965174;28;20035;-83
2021/06/25 08:22:52;;;;;;;8.38;2.20;;;;;;;12.26;74.58;101874.25;4979843;28;20077;-85
2021/06/25 08:25:18;;;;;;;5.45;2.28;;;;;;;12.43;73.24;101899.44;4992207;28;20467;-85
2021/06/25 08:27:44;;;;;;;8.60;2.00;;;;;;;12.44;73.30;101893.06;4994423;28;20121;-85
2021/06/25 08:30:10;;;;;;;6.90;2.33;;;;;;;12.41;73.53;101890.66;4974283;28;20073;-84
2021/06/25 08:32:36;;;;;;;5.00;2.20;;;;;;;12.39;73.12;101892.69;4951323;28;20105;-83
2021/06/25 08:35:03;;;;;;;7.43;2.55;;;;;;;12.38;73.14;101885.59;4989347;28;20049;-83
2021/06/25 08:37:28;;;;;;;6.10;2.50;;;;;;;12.47;72.96;101895.44;4984210;28;20033;-84
2021/06/25 08:39:54;;;;;;;3.90;2.10;;;;;;;12.54;72.73;101901.88;4974412;28;20026;-83
2021/06/25 08:42:19;;;;;;;6.93;2.47;;;;;;;12.56;72.55;101894.47;4954787;28;20029;-84
2021/06/25 08:44:45;;;;;;;7.60;2.95;;;;;;;12.62;72.64;101891.13;4969290;28;20113;-83
2021/06/25 08:47:10;;;;;;;8.07;2.42;;;;;;;12.59;72.56;101886.03;4977623;28;20030;-84
2021/06/25 08:49:38;;;;;;;6.43;2.08;;;;;;;12.70;71.89;101899.28;4979265;28;20464;-83
2021/06/25 08:52:04;;;;;;;5.03;2.80;;;;;;;12.67;71.45;101896.03;4970873;28;20049;-84
2021/06/25 08:54:30;;;;;;;4.55;2.05;;;;;;;12.56;72.02;101875.56;5010967;28;20030;-84
2021/06/25 08:56:57;;;;;;;5.82;2.47;;;;;;;12.35;71.62;101851.69;4979278;28;20165;-85
2021/06/25 08:59:22;;;;;;;6.38;2.53;;;;;;;12.44;70.57;101869.63;4978958;28;20064;-84
2021/06/25 09:01:49;;;;;;;7.32;2.42;;;;;;;12.53;70.13;101878.59;4961501;28;20066;-85
2021/06/25 09:04:37;;;;;;;5.43;2.03;;;;;;;12.55;70.03;101887.38;4968245;28;20026;-84
2021/06/25 09:07:04;;;;;;;5.78;2.17;;;;;;;12.64;69.77;101883.69;4970032;28;20022;-85
2021/06/25 09:09:56;;;;;;;7.55;2.80;;;;;;;12.73;69.28;101882.75;4980896;28;20483;-84
2021/06/25 09:12:25;;;;;;;6.33;2.43;;;;;;;12.93;69.43;101885.16;4970216;28;20044;-84
2021/06/25 09:14:57;;;;;;;6.50;2.05;;;;;;;13.08;68.17;101883.53;4986819;28;20275;-84
2021/06/25 09:17:23;;;;;;;5.00;2.17;;;;;;;12.99;67.57;101852.09;4972856;28;20022;-84
2021/06/25 09:19:48;;;;;;;6.93;2.17;;;;;;;13.16;66.83;101872.75;4974240;28;20072;-83
2021/06/25 09:22:14;;;;;;;4.05;1.80;;;;;;;13.06;65.80;101873.91;4957926;28;20034;-84
2021/06/25 09:24:39;;;;;;;5.88;2.05;;;;;;;12.93;66.01;101847.38;4989949;28;20113;-84
2021/06/25 09:27:07;;;;;;;7.05;1.95;;;;;;;12.95;66.82;101864.25;4970524;28;20035;-84
2021/06/25 09:29:35;;;;;;;4.38;2.20;;;;;;;12.95;66.48;101878.59;4967380;28;20023;-85
2021/06/25 09:32:04;;;;;;;3.75;2.05;;;;;;;12.91;66.82;101866.47;4967512;28;20576;-84
2021/06/25 09:34:37;;;;;;;5.18;2.00;;;;;;;12.89;67.27;101876.56;4973082;28;20034;-84
2021/06/25 09:37:03;;;;;;;;;;;;;;;12.85;66.92;101871.66;4974556;28;20026;-84
2021/06/25 09:39:29;;;;;;;5.85;2.40;;;;;;;12.73;65.89;101852.22;4956266;28;19909;-84
2021/06/25 09:41:54;;;;;;;6.93;1.80;;;;;;;12.77;66.34;101856.28;4990338;28;20026;-84
2021/06/25 09:44:20;;;;;;;3.67;2.25;;;;;;;12.83;66.27;101873.66;4979933;28;20027;-84
2021/06/25 09:46:49;;;;;;;5.97;2.35;;;;;;;12.87;66.83;101873.19;4966227;28;20061;-84
2021/06/25 09:49:17;;;;;;;3.65;2.00;;;;;;;12.88;66.50;101865.91;4990532;28;20105;-84
2021/06/25 09:52:03;;;;;;;3.95;1.77;;;;;;;12.87;65.88;101865.06;4990397;28;20030;-84
2021/06/25 09:54:30;;;;;;;6.00;1.88;;;;;;;12.95;65.86;101872.34;4963850;28;20022;-83
2021/06/25 09:57:10;;;;;;;7.25;1.73;;;;;;;12.86;65.36;101854.44;4995594;28;20026;-84
2021/06/25 10:02:18;;;;;;;5.72;1.67;;;;;;;12.98;65.56;101862.06;4974812;28;20471;-84
2021/06/25 10:04:44;;;;;;;3.55;1.92;;;;;;;12.98;65.57;101861.22;4990386;28;20030;-84
2021/06/25 10:07:20;;;;;;;6.75;2.17;;;;;;;13.15;65.61;101867.50;4973456;28;20025;-84
2021/06/25 10:09:48;;;;;;;4.55;1.70;;;;;;;13.26;65.47;101871.75;4954167;28;20054;-84
2021/06/25 10:12:16;;;;;;;4.53;2.13;;;;;;;13.30;64.69;101873.97;4966401;28;20034;-84
2021/06/25 10:14:42;;;;;;;8.35;2.10;;;;;;;13.17;64.22;101860.91;4972713;28;20072;-84
2021/06/25 10:17:09;;;;;;;5.95;1.60;;;;;;;13.18;63.46;101867.19;4973033;28;20022;-84
2021/06/25 10:19:40;;;;;;;7.45;1.73;;;;;;;13.26;63.43;101885.25;4973610;28;20483;-84
2021/06/25 10:22:10;;;;;;;5.57;1.80;;;;;;;13.27;63.95;101860.81;4973766;28;20089;-84
2021/06/25 10:24:38;;;;;;;3.33;1.88;;;;;;;13.36;63.71;101880.56;4972737;28;20077;-84
2021/06/25 10:27:05;;;;;;;4.82;1.67;;;;;;;13.31;63.46;101882.91;4989455;28;20023;-84
2021/06/25 10:29:35;;;;;;;3.38;1.60;;;;;;;13.16;63.47;101875.44;4972782;28;20026;-84
2021/06/25 10:32:01;;;;;;;6.00;1.95;;;;;;;13.00;64.00;101866.47;4954334;28;20476;-84
2021/06/25 10:34:34;;;;;;;5.03;1.50;;;;;;;12.90;65.30;101874.72;4981913;28;20037;-84
2021/06/25 10:37:02;;;;;;;4.03;1.42;;;;;;;12.91;65.32;101879.97;4979128;28;20041;-84
2021/06/25 10:39:31;;;;;;;5.28;1.70;;;;;;;12.93;65.98;101885.16;4989164;28;20049;-84
2021/06/25 10:41:58;;;;;;;5.35;1.80;;;;;;;13.03;66.35;101882.34;4980680;28;20410;-84
2021/06/25 10:44:35;;;;;;;5.72;1.73;;;;;;;13.13;66.36;101867.69;4946836;28;20037;-84
2021/06/25 10:47:22;;;;;;;4.03;1.48;;;;;;;13.25;66.10;101868.19;4989780;28;20038;-84
2021/06/25 10:50:03;;;;;;;7.00;1.95;;;;;;;13.41;65.80;101867.41;4972644;28;20019;-84
2021/06/25 10:53:05;;;;;;;3.95;1.40;;;;;;;13.66;65.59;101853.94;4990025;28;20072;-84
2021/06/25 10:55:30;;;;;;;6.57;1.60;;;;;;;13.73;65.41;101844.09;4959063;28;20030;-84
2021/06/25 10:57:56;;;;;;;5.15;2.10;;;;;;;13.90;64.47;101848.50;4952796;28;20415;-84
2021/06/25 11:00:53;;;;;;;4.70;1.60;;;;;;;14.07;63.87;101841.19;4984620;28;20026;-84
2021/06/25 11:03:41;;;;;;;5.07;1.60;;;;;;;14.26;63.55;101848.06;4991202;28;20121;-84
2021/06/25 11:06:36;;;;;;;6.35;1.77;;;;;;;14.21;63.07;101820.69;4972217;28;20026;-84
2021/06/25 11:09:04;;;;;;;4.22;1.45;;;;;;;14.27;63.02;101841.66;4966510;28;20065;-84
2021/06/25 11:11:30;;;;;;;6.22;1.40;;;;;;;14.11;60.54;101844.41;4972825;28;20029;-84
2021/06/25 11:13:56;;;;;;;4.13;1.50;;;;;;;14.02;60.86;101836.28;4989411;28;20109;-83
2021/06/25 11:16:22;;;;;;;3.42;1.23;;;;;;;14.04;60.91;101836.13;4963949;28;20041;-84
2021/06/25 11:18:47;;;;;;;5.00;1.42;;;;;;;14.10;60.83;101840.00;4968953;28;20019;-84
2021/06/25 11:21:13;;;;;;;7.57;1.70;;;;;;;14.12;61.20;101837.97;4953192;28;20031;-84
2021/06/25 11:23:38;;;;;;;5.65;1.38;;;;;;;14.29;61.06;101848.59;4941765;28;20030;-85
2021/06/25 11:26:13;;;;;;;4.47;1.60;;;;;;;14.44;60.76;101847.84;4989840;28;20042;-84
2021/06/25 11:28:53;;;;;;;3.15;1.50;;;;;;;14.56;61.13;101824.00;4971940;28;20513;-83
2021/06/25 11:31:20;;;;;;;4.15;1.60;;;;;;;14.77;61.10;101836.94;4955750;28;20567;-85
2021/06/25 11:33:54;;;;;;;2.60;1.23;;;;;;;14.78;61.32;101836.72;4956780;28;20149;-84
2021/06/25 11:36:31;;;;;;;4.63;1.45;;;;;;;14.62;59.31;101828.69;4969821;28;20057;-84
2021/06/25 11:39:20;;;;;;;4.45;1.50;;;;;;;14.29;59.84;101829.66;4989444;28;20082;-84
2021/06/25 11:42:10;;;;;;;3.53;1.05;;;;;;;14.05;60.26;101821.56;4991649;28;20030;-86